createdAt,value
2022-12-14T00:00:34.961Z,69.31
2022-12-14T00:03:20.995Z,68.22
2022-12-14T00:05:52.707Z,68.67
2022-12-14T00:08:20.780Z,68.50
2022-12-14T00:10:49.321Z,68.05
2022-12-14T00:13:20.251Z,67.70
2022-12-14T00:15:55.803Z,67.39
2022-12-14T00:18:30.031Z,67.06
2022-12-14T00:21:14.258Z,67.47
2022-12-14T00:23:51.984Z,66.67
2022-12-14T00:26:29.710Z,66.57
2022-12-14T00:29:03.951Z,66.36
2022-12-14T00:31:35.742Z,66.22
2022-12-14T00:34:07.443Z,66.10
2022-12-14T00:36:38.241Z,65.85
2022-12-14T00:39:07.612Z,65.81
2022-12-14T00:41:40.527Z,65.39
2022-12-14T00:44:11.008Z,65.29
2022-12-14T00:46:44.139Z,65.09
2022-12-14T00:49:13.935Z,64.85
2022-12-14T00:51:46.435Z,65.16
2022-12-14T00:54:16.937Z,64.83
2022-12-14T00:56:49.831Z,65.00
2022-12-14T00:59:26.974Z,65.43
2022-12-14T01:02:01.859Z,65.43
2022-12-14T01:04:35.922Z,65.39
2022-12-14T01:07:08.321Z,65.26
2022-12-14T01:09:40.917Z,65.23
2022-12-14T01:12:12.975Z,65.33
2022-12-14T01:14:47.346Z,65.51
2022-12-14T01:17:21.125Z,65.57
2022-12-14T01:19:55.096Z,65.53
2022-12-14T01:22:29.601Z,65.63
2022-12-14T01:25:00.846Z,65.92
2022-12-14T01:27:32.608Z,65.84
2022-12-14T01:30:04.962Z,65.33
2022-12-14T01:32:37.216Z,66.07
2022-12-14T01:35:09.587Z,65.79
2022-12-14T01:37:41.450Z,66.08
2022-12-14T01:40:13.324Z,66.09
2022-12-14T01:42:48.571Z,65.97
2022-12-14T01:45:25.620Z,65.28
2022-12-14T01:48:05.883Z,65.34
2022-12-14T01:50:48.196Z,65.56
2022-12-14T01:53:24.024Z,65.65
2022-12-14T01:55:58.572Z,65.75
2022-12-14T01:58:29.026Z,65.83
2022-12-14T02:01:00.729Z,65.55
2022-12-14T02:03:41.233Z,65.00
2022-12-14T02:06:28.922Z,64.74
2022-12-14T02:09:02.971Z,64.93
2022-12-14T02:12:02.593Z,64.80
2022-12-14T02:14:38.372Z,64.38
2022-12-14T02:17:12.385Z,64.84
2022-12-14T02:19:47.946Z,64.75
2022-12-14T02:22:58.912Z,64.19
2022-12-14T02:26:06.786Z,63.99
2022-12-14T02:29:06.037Z,64.37
2022-12-14T02:32:25.026Z,64.36
2022-12-14T02:35:06.890Z,64.41
2022-12-14T02:37:49.411Z,64.09
2022-12-14T02:40:40.414Z,64.02
2022-12-14T02:43:35.225Z,64.08
2022-12-14T02:46:31.975Z,63.71
2022-12-14T02:49:16.268Z,63.21
2022-12-14T02:52:46.010Z,63.92
2022-12-14T02:55:36.968Z,62.93
2022-12-14T02:58:28.507Z,62.72
2022-12-14T03:00:57.466Z,62.65
2022-12-14T03:03:25.648Z,63.22
2022-12-14T03:06:14.711Z,63.17
2022-12-14T03:08:46.949Z,63.56
2022-12-14T03:11:27.914Z,63.53
2022-12-14T03:14:25.401Z,63.66
2022-12-14T03:16:57.245Z,63.65
2022-12-14T03:19:57.002Z,63.96
2022-12-14T03:22:33.688Z,63.63
2022-12-14T03:25:09.569Z,63.48
2022-12-14T03:27:44.769Z,63.72
2022-12-14T03:30:31.716Z,64.19
2022-12-14T03:33:13.669Z,64.41
2022-12-14T03:35:56.722Z,64.00
2022-12-14T03:38:30.186Z,63.37
2022-12-14T03:41:38.210Z,62.96
2022-12-14T03:44:31.003Z,63.18
2022-12-14T03:47:18.513Z,62.87
2022-12-14T03:50:18.219Z,60.89
2022-12-14T03:53:49.760Z,61.36
2022-12-14T03:57:06.552Z,61.21
2022-12-14T03:59:41.202Z,61.43
2022-12-14T04:02:44.165Z,60.92
2022-12-14T04:05:20.769Z,60.31
2022-12-14T04:08:02.173Z,60.05
2022-12-14T04:11:02.737Z,60.31
2022-12-14T04:13:59.306Z,60.48
2022-12-14T04:16:51.726Z,59.84
2022-12-14T04:19:44.503Z,59.75
2022-12-14T04:22:25.140Z,60.23
2022-12-14T04:25:36.298Z,59.87
2022-12-14T04:28:49.168Z,59.83
2022-12-14T04:31:21.583Z,60.06
2022-12-14T04:33:56.134Z,59.68
2022-12-14T04:36:45.623Z,59.96
2022-12-14T04:39:36.156Z,59.19
2022-12-14T04:42:08.033Z,59.30
2022-12-14T04:44:49.105Z,58.83
2022-12-14T04:47:19.812Z,59.20
2022-12-14T04:49:56.216Z,59.34
2022-12-14T04:52:28.893Z,59.21
2022-12-14T04:55:20.438Z,59.52
2022-12-14T04:58:31.184Z,59.26
2022-12-14T05:01:03.714Z,58.75
2022-12-14T05:03:38.231Z,58.27
2022-12-14T05:06:45.743Z,58.14
2022-12-14T05:09:34.320Z,58.24
2022-12-14T05:12:23.732Z,57.67
2022-12-14T05:15:06.622Z,57.86
2022-12-14T05:17:39.440Z,57.36
2022-12-14T05:20:18.938Z,57.64
2022-12-14T05:22:46.732Z,57.62
2022-12-14T05:25:14.708Z,57.50
2022-12-14T05:27:42.296Z,57.22
2022-12-14T05:30:11.304Z,57.32
2022-12-14T05:32:40.010Z,57.24
2022-12-14T05:35:10.075Z,57.39
2022-12-14T05:37:37.859Z,57.65
2022-12-14T05:40:07.080Z,57.84
2022-12-14T05:42:38.163Z,57.87
2022-12-14T05:45:12.506Z,57.98
2022-12-14T05:47:40.461Z,58.20
2022-12-14T05:50:09.449Z,57.98
2022-12-14T05:52:37.503Z,57.63
2022-12-14T05:55:06.732Z,57.87
2022-12-14T05:57:34.402Z,58.13
2022-12-14T06:00:04.161Z,57.99
2022-12-14T06:02:32.541Z,57.83
2022-12-14T06:05:00.959Z,57.55
2022-12-14T06:07:29.144Z,57.51
2022-12-14T06:10:00.447Z,57.45
2022-12-14T06:12:29.182Z,57.48
2022-12-14T06:14:57.131Z,57.47
2022-12-14T06:17:24.682Z,57.45
2022-12-14T06:19:54.541Z,57.27
2022-12-14T06:22:22.189Z,57.56
2022-12-14T06:24:50.057Z,57.68
2022-12-14T06:27:17.669Z,57.30
2022-12-14T06:29:45.498Z,57.48
2022-12-14T06:32:12.956Z,57.49
2022-12-14T06:34:42.520Z,57.15
2022-12-14T06:37:10.221Z,57.45
2022-12-14T06:39:38.908Z,57.18
2022-12-14T06:42:07.076Z,58.20
2022-12-14T06:44:35.598Z,57.75
2022-12-14T06:47:03.836Z,57.23
2022-12-14T06:49:32.102Z,57.32
2022-12-14T06:51:59.881Z,57.35
2022-12-14T06:54:28.007Z,56.97
2022-12-14T06:56:55.559Z,56.88
2022-12-14T06:59:24.938Z,56.65
2022-12-14T07:01:53.093Z,56.80
2022-12-14T07:04:21.659Z,57.38
2022-12-14T07:06:49.511Z,57.14
2022-12-14T07:09:19.045Z,57.10
2022-12-14T07:11:51.675Z,56.27
2022-12-14T07:14:20.734Z,56.24
2022-12-14T07:16:49.144Z,56.30
2022-12-14T07:19:18.393Z,56.61
2022-12-14T07:21:46.056Z,57.06
2022-12-14T07:24:14.350Z,56.34
2022-12-14T07:26:42.169Z,56.57
2022-12-14T07:29:12.078Z,56.35
2022-12-14T07:31:39.804Z,56.57
2022-12-14T07:34:07.842Z,56.49
2022-12-14T07:36:35.509Z,56.94
2022-12-14T07:39:03.469Z,56.83
2022-12-14T07:41:32.474Z,57.65
2022-12-14T07:44:01.336Z,56.63
2022-12-14T07:46:32.382Z,56.85
2022-12-14T07:49:02.070Z,57.19
2022-12-14T07:51:38.547Z,56.42
2022-12-14T07:54:07.345Z,57.08
2022-12-14T07:56:41.653Z,56.50
2022-12-14T07:59:15.563Z,56.95
2022-12-14T08:01:44.281Z,56.81
2022-12-14T08:04:19.103Z,57.45
2022-12-14T08:06:48.770Z,57.17
2022-12-14T08:09:18.234Z,57.70
2022-12-14T08:11:46.086Z,57.48
2022-12-14T08:14:17.860Z,57.74
2022-12-14T08:16:47.031Z,57.82
2022-12-14T08:19:17.248Z,58.13
2022-12-14T08:21:45.889Z,58.61
2022-12-14T08:24:16.059Z,58.81
2022-12-14T08:26:47.256Z,59.20
2022-12-14T08:29:18.841Z,59.59
2022-12-14T08:31:46.673Z,59.84
2022-12-14T08:34:16.895Z,59.38
2022-12-14T08:36:44.444Z,58.74
2022-12-14T08:39:13.404Z,59.18
2022-12-14T08:41:41.058Z,59.44
2022-12-14T08:44:09.889Z,59.50
2022-12-14T08:46:39.214Z,59.55
2022-12-14T08:49:07.229Z,59.47
2022-12-14T08:51:40.100Z,59.37
2022-12-14T08:54:07.999Z,59.56
2022-12-14T08:56:35.607Z,59.38
2022-12-14T08:59:03.569Z,59.00
2022-12-14T09:01:34.122Z,58.60
2022-12-14T09:04:08.691Z,58.65
2022-12-14T09:06:39.256Z,58.04
2022-12-14T09:09:15.651Z,58.13
2022-12-14T09:11:45.385Z,57.95
2022-12-14T09:14:13.465Z,57.95
2022-12-14T09:16:41.408Z,57.86
2022-12-14T09:19:09.442Z,58.11
2022-12-14T09:21:37.123Z,57.81
2022-12-14T09:24:07.103Z,57.70
2022-12-14T09:26:34.723Z,57.63
2022-12-14T09:29:02.879Z,57.60
2022-12-14T09:31:30.616Z,57.38
2022-12-14T09:33:58.740Z,57.33
2022-12-14T09:36:28.517Z,56.81
2022-12-14T09:38:57.937Z,56.94
2022-12-14T09:41:34.665Z,57.66
2022-12-14T09:44:25.030Z,57.25
2022-12-14T09:47:02.943Z,57.41
2022-12-14T09:49:55.923Z,57.04
2022-12-14T09:52:35.239Z,57.35
2022-12-14T09:55:17.442Z,56.70
2022-12-14T09:57:47.458Z,56.78
2022-12-14T10:00:21.307Z,57.36
2022-12-14T10:03:10.607Z,56.13
2022-12-14T10:05:53.684Z,56.41
2022-12-14T10:08:36.259Z,56.80
2022-12-14T10:11:29.960Z,57.13
2022-12-14T10:15:11.440Z,57.15
2022-12-14T10:18:57.665Z,57.83
2022-12-14T10:21:25.476Z,57.75
2022-12-14T10:24:03.505Z,57.52
2022-12-14T10:26:43.360Z,57.84
2022-12-14T10:29:21.649Z,57.42
2022-12-14T10:31:59.063Z,57.87
2022-12-14T10:34:32.550Z,58.36
2022-12-14T10:37:21.210Z,57.23
2022-12-14T10:40:15.478Z,58.02
2022-12-14T10:43:34.814Z,57.73
2022-12-14T10:46:43.689Z,57.08
2022-12-14T10:49:23.429Z,58.18
2022-12-14T10:52:03.903Z,58.22
2022-12-14T10:54:45.798Z,58.50
2022-12-14T10:57:20.787Z,58.13
2022-12-14T11:00:05.638Z,58.49
2022-12-14T11:02:50.460Z,57.57
2022-12-14T11:05:54.014Z,57.94
2022-12-14T11:08:48.533Z,57.68
2022-12-14T11:11:24.369Z,56.96
2022-12-14T11:14:08.735Z,57.24
2022-12-14T11:16:40.207Z,57.75
2022-12-14T11:19:26.528Z,57.60
2022-12-14T11:22:22.044Z,57.66
2022-12-14T11:25:51.008Z,58.70
2022-12-14T11:28:50.778Z,58.33
2022-12-14T11:31:44.816Z,58.98
2022-12-14T11:34:37.877Z,58.63
2022-12-14T11:37:22.617Z,57.98
2022-12-14T11:39:54.365Z,58.52
2022-12-14T11:42:24.251Z,58.57
2022-12-14T11:44:53.009Z,59.42
2022-12-14T11:47:29.296Z,59.97
2022-12-14T11:50:00.428Z,60.36
2022-12-14T11:52:43.498Z,61.07
2022-12-14T11:55:22.996Z,60.61
2022-12-14T11:58:01.247Z,60.44
2022-12-14T12:00:52.624Z,61.29
2022-12-14T12:03:48.335Z,62.11
2022-12-14T12:06:25.429Z,61.16
2022-12-14T12:09:00.995Z,62.09
2022-12-14T12:11:32.320Z,62.54
2022-12-14T12:14:30.162Z,63.19
2022-12-14T12:16:58.685Z,64.73
2022-12-14T12:19:37.362Z,64.80
2022-12-14T12:22:11.018Z,65.28
2022-12-14T12:25:25.096Z,66.29
2022-12-14T12:28:04.563Z,66.38
2022-12-14T12:30:39.427Z,67.18
2022-12-14T12:33:43.240Z,66.81
2022-12-14T12:36:12.295Z,67.17
2022-12-14T12:39:04.361Z,68.51
2022-12-14T12:42:04.965Z,67.41
2022-12-14T12:44:53.094Z,67.58
2022-12-14T12:47:46.124Z,67.30
2022-12-14T12:50:20.280Z,66.44
2022-12-14T12:53:03.217Z,65.94
2022-12-14T12:55:49.221Z,65.51
2022-12-14T12:58:29.135Z,65.92
2022-12-14T13:01:07.607Z,65.36
2022-12-14T13:03:45.310Z,65.18
2022-12-14T13:06:32.151Z,65.46
2022-12-14T13:09:14.996Z,65.76
2022-12-14T13:11:44.068Z,64.70
2022-12-14T13:14:29.056Z,64.90
2022-12-14T13:16:59.536Z,64.61
2022-12-14T13:19:50.649Z,64.99
2022-12-14T13:22:28.708Z,64.95
2022-12-14T13:25:14.116Z,65.28
2022-12-14T13:28:22.275Z,63.98
2022-12-14T13:31:12.054Z,64.93
2022-12-14T13:33:55.033Z,65.35
2022-12-14T13:37:07.248Z,65.67
2022-12-14T13:40:14.442Z,65.99
2022-12-14T13:43:12.119Z,65.44
2022-12-14T13:45:49.733Z,66.59
2022-12-14T13:48:23.595Z,66.24
2022-12-14T13:51:05.435Z,67.30
2022-12-14T13:53:50.781Z,66.73
2022-12-14T13:56:32.721Z,67.35
2022-12-14T13:59:06.443Z,67.39
2022-12-14T14:02:02.172Z,66.96
2022-12-14T14:04:32.224Z,67.48
2022-12-14T14:07:24.602Z,66.39
2022-12-14T14:10:26.691Z,67.08
2022-12-14T14:12:54.386Z,67.24
2022-12-14T14:15:35.530Z,66.92
2022-12-14T14:18:27.404Z,67.77
2022-12-14T14:21:13.875Z,68.37
2022-12-14T14:24:10.296Z,68.43
2022-12-14T14:26:42.879Z,68.66
2022-12-14T14:29:20.084Z,68.67
2022-12-14T14:32:27.884Z,68.98
2022-12-14T14:34:55.612Z,68.90
2022-12-14T14:37:37.716Z,69.15
2022-12-14T14:40:22.039Z,69.20
2022-12-14T14:43:07.784Z,69.81
2022-12-14T14:45:53.637Z,69.19
2022-12-14T14:48:35.776Z,69.65
2022-12-14T14:51:29.947Z,69.24
2022-12-14T14:54:46.195Z,68.88
2022-12-14T14:57:57.406Z,69.52
2022-12-14T15:00:26.004Z,68.64
2022-12-14T15:02:55.719Z,68.35
2022-12-14T15:05:47.277Z,68.38
2022-12-14T15:08:36.236Z,68.07
2022-12-14T15:11:15.120Z,67.73
2022-12-14T15:14:15.311Z,68.71
2022-12-14T15:16:46.439Z,68.30
2022-12-14T15:19:36.170Z,68.39
2022-12-14T15:22:14.953Z,67.99
2022-12-14T15:24:49.685Z,67.92
2022-12-14T15:27:24.370Z,68.15
2022-12-14T15:29:53.896Z,67.53
2022-12-14T15:32:24.297Z,67.25
2022-12-14T15:35:06.983Z,67.65
2022-12-14T15:38:00.612Z,67.01
2022-12-14T15:40:31.119Z,66.04
2022-12-14T15:43:03.766Z,67.91
2022-12-14T15:45:41.345Z,66.50
2022-12-14T15:48:14.542Z,66.04
2022-12-14T15:50:46.121Z,65.49
2022-12-14T15:53:24.281Z,65.32
2022-12-14T15:56:00.353Z,64.74
2022-12-14T15:58:34.619Z,64.83
2022-12-14T16:01:26.008Z,64.91
2022-12-14T16:04:00.811Z,65.44
2022-12-14T16:06:31.310Z,66.17
2022-12-14T16:09:28.549Z,66.01
2022-12-14T16:12:09.693Z,66.64
2022-12-14T16:14:56.998Z,67.10
2022-12-14T16:17:37.035Z,66.98
2022-12-14T16:20:26.292Z,67.05
2022-12-14T16:23:05.346Z,66.94
2022-12-14T16:25:37.384Z,75.57
2022-12-14T16:28:42.060Z,70.67
2022-12-14T16:31:22.887Z,69.17
2022-12-14T16:34:20.034Z,68.89
2022-12-14T16:37:30.437Z,63.78
2022-12-14T16:39:47.232Z,60.18
2022-12-14T16:42:26.949Z,59.48
2022-12-14T16:44:54.496Z,59.58
2022-12-14T16:47:49.331Z,60.78
2022-12-14T16:50:56.232Z,62.17
2022-12-14T16:53:26.560Z,62.84
2022-12-14T16:56:15.747Z,63.96
2022-12-14T16:59:04.123Z,65.48
2022-12-14T17:01:44.849Z,66.00
2022-12-14T17:04:16.048Z,66.55
2022-12-14T17:06:52.762Z,67.76
2022-12-14T17:09:27.478Z,68.25
2022-12-14T17:12:00.339Z,68.47
2022-12-14T17:14:28.774Z,70.17
2022-12-14T17:17:02.090Z,69.62
2022-12-14T17:19:39.019Z,71.12
2022-12-14T17:22:16.424Z,71.73
2022-12-14T17:24:44.806Z,72.74
2022-12-14T17:27:18.158Z,73.12
2022-12-14T17:29:46.169Z,73.93
2022-12-14T17:32:16.661Z,74.16
2022-12-14T17:34:45.854Z,73.88
2022-12-14T17:37:19.596Z,74.40
2022-12-14T17:39:48.406Z,74.78
2022-12-14T17:42:20.981Z,75.16
2022-12-14T17:44:56.806Z,75.28
2022-12-14T17:47:25.758Z,76.23
2022-12-14T17:49:53.769Z,76.05
2022-12-14T17:52:29.869Z,76.58
2022-12-14T17:54:59.540Z,76.66
2022-12-14T17:57:28.579Z,77.34
2022-12-14T18:00:18.461Z,77.51
2022-12-14T18:02:46.382Z,76.93
2022-12-14T18:05:21.474Z,78.10
2022-12-14T18:07:49.927Z,78.44
2022-12-14T18:10:19.054Z,78.32
2022-12-14T18:12:47.060Z,78.23
2022-12-14T18:15:26.677Z,76.86
2022-12-14T18:17:54.753Z,77.27
2022-12-14T18:20:24.312Z,77.77
2022-12-14T18:22:53.068Z,77.80
2022-12-14T18:25:43.475Z,77.29
2022-12-14T18:28:16.030Z,77.65
2022-12-14T18:30:55.058Z,77.68
2022-12-14T18:33:26.285Z,78.30
2022-12-14T18:35:56.484Z,77.86
2022-12-14T18:38:25.230Z,78.53
2022-12-14T18:40:56.002Z,78.16
2022-12-14T18:43:28.281Z,78.59
2022-12-14T18:45:57.479Z,78.32
2022-12-14T18:48:26.185Z,78.00
2022-12-14T18:50:55.520Z,77.30
2022-12-14T18:53:25.920Z,77.73
2022-12-14T18:55:54.491Z,78.43
2022-12-14T18:58:28.429Z,78.24
2022-12-14T19:00:59.755Z,78.36
2022-12-14T19:03:31.320Z,78.50
2022-12-14T19:09:01.331Z,78.03
2022-12-14T19:11:40.131Z,78.72
2022-12-14T19:14:08.454Z,78.18
2022-12-14T19:16:36.469Z,76.72
2022-12-14T19:19:04.469Z,76.47
2022-12-14T19:21:32.444Z,76.17
2022-12-14T19:24:00.119Z,76.81
2022-12-14T19:26:29.421Z,76.28
2022-12-14T19:28:57.303Z,76.90
2022-12-14T19:31:25.619Z,76.79
2022-12-14T19:33:54.442Z,76.53
2022-12-14T19:36:22.443Z,76.84
2022-12-14T19:38:50.255Z,77.32
2022-12-14T19:41:20.641Z,77.95
2022-12-14T19:43:48.705Z,77.69
2022-12-14T19:46:18.092Z,77.80
2022-12-14T19:48:46.669Z,77.84
2022-12-14T19:51:14.930Z,79.33
2022-12-14T19:53:44.745Z,79.59
2022-12-14T19:56:17.111Z,79.98
2022-12-14T19:58:45.498Z,80.44
2022-12-14T20:01:16.581Z,81.44
2022-12-14T20:03:44.546Z,81.79
2022-12-14T20:06:12.652Z,82.54
2022-12-14T20:08:40.381Z,82.60
2022-12-14T20:11:11.119Z,83.30
2022-12-14T20:13:40.977Z,83.61
2022-12-14T20:16:17.280Z,83.55
2022-12-14T20:18:47.000Z,83.83
2022-12-14T20:21:22.198Z,84.72
2022-12-14T20:23:51.747Z,84.91
2022-12-14T20:26:23.846Z,84.90
2022-12-14T20:28:58.737Z,85.33
2022-12-14T20:31:27.429Z,85.61
2022-12-14T20:33:55.183Z,84.65
2022-12-14T20:36:25.093Z,85.00
2022-12-14T20:39:03.478Z,84.98
2022-12-14T20:41:33.216Z,84.89
2022-12-14T20:44:04.461Z,85.87
2022-12-14T20:46:35.865Z,86.09
2022-12-14T20:49:13.104Z,82.69
2022-12-14T20:51:42.159Z,80.37
2022-12-14T20:54:14.720Z,78.80
2022-12-14T20:56:43.424Z,76.46
2022-12-14T20:59:12.021Z,73.50
2022-12-14T21:01:42.363Z,72.66
2022-12-14T21:04:10.615Z,72.61
2022-12-14T21:06:41.870Z,71.55
2022-12-14T21:09:11.790Z,69.98
2022-12-14T21:12:05.593Z,70.46
2022-12-14T21:14:42.706Z,69.32
2022-12-14T21:17:11.132Z,69.71
2022-12-14T21:19:38.951Z,69.14
2022-12-14T21:22:10.574Z,68.71
2022-12-14T21:25:02.367Z,70.53
2022-12-14T21:27:30.562Z,73.18
2022-12-14T21:29:58.312Z,75.49
2022-12-14T21:32:26.411Z,77.07
2022-12-14T21:34:54.074Z,79.33
2022-12-14T21:37:22.683Z,80.82
2022-12-14T21:39:54.205Z,82.41
2022-12-14T21:42:27.794Z,83.33
2022-12-14T21:44:56.507Z,84.80
2022-12-14T21:47:29.923Z,85.47
2022-12-14T21:50:03.611Z,86.22
2022-12-14T21:52:32.633Z,86.97
2022-12-14T21:55:00.404Z,87.31
2022-12-14T21:57:49.379Z,88.00
2022-12-14T22:00:25.310Z,88.03
2022-12-14T22:02:56.539Z,87.57
2022-12-14T22:05:25.017Z,87.59
2022-12-14T22:07:53.042Z,87.91
2022-12-14T22:10:27.639Z,86.63
2022-12-14T22:12:57.437Z,87.40
2022-12-14T22:15:25.208Z,87.66
2022-12-14T22:17:53.532Z,87.38
2022-12-14T22:20:21.773Z,88.32
2022-12-14T22:22:49.822Z,87.74
2022-12-14T22:25:17.694Z,88.10
2022-12-14T22:27:50.142Z,88.68
2022-12-14T22:30:20.025Z,88.70
2022-12-14T22:32:48.512Z,89.04
2022-12-14T22:35:16.193Z,89.73
2022-12-14T22:37:44.134Z,90.30
2022-12-14T22:40:16.707Z,90.71
2022-12-14T22:42:50.768Z,91.02
2022-12-14T22:45:23.411Z,90.62
2022-12-14T22:47:59.610Z,91.00
2022-12-14T22:50:35.183Z,91.59
2022-12-14T22:53:09.381Z,90.98
2022-12-14T22:55:44.093Z,91.14
2022-12-14T22:58:22.035Z,90.98
2022-12-14T23:01:00.902Z,91.37
2022-12-14T23:03:38.838Z,90.96
2022-12-14T23:06:16.809Z,91.46
2022-12-14T23:09:09.917Z,91.28
2022-12-14T23:11:59.600Z,91.73
2022-12-14T23:14:46.407Z,91.62
2022-12-14T23:17:32.819Z,92.16
2022-12-14T23:20:19.329Z,92.01
2022-12-14T23:23:05.752Z,91.84
2022-12-14T23:25:53.967Z,91.98
2022-12-14T23:28:40.273Z,92.32
2022-12-14T23:31:27.079Z,91.68
2022-12-14T23:34:13.424Z,91.97
2022-12-14T23:37:00.241Z,91.15
2022-12-14T23:39:46.746Z,91.02
2022-12-14T23:42:33.614Z,90.92
2022-12-14T23:45:19.789Z,91.38
2022-12-14T23:48:06.482Z,91.44
2022-12-14T23:50:52.903Z,91.36
2022-12-14T23:53:39.511Z,91.53
2022-12-14T23:56:26.059Z,91.64
2022-12-14T23:59:14.187Z,91.66
